Time;durP1;ratioP1;P1;durP2;ratioP2;P2;SDS_P1;SDS_P2;PMS_P1;PMS_P2;Temp;Humidity;BMP_temperature;BMP_pressure;BME280_temperature;BME280_humidity;BME280_pressure;Samples;Min_cycle;Max_cycle;Signal;HPM_P1;HPM_P2
2021/10/09 00:01:38;;;;;;;42.60;25.40;;;;;;;-139.48;100.00;61774.03;4942241;29;20085;-66
2021/10/09 00:04:22;;;;;;;58.55;34.85;;;;;;;-139.48;100.00;61774.03;4956905;29;20066;-67
2021/10/09 00:07:06;;;;;;;49.30;26.23;;;;;;;-139.48;100.00;61774.03;4957131;29;20045;-67
2021/10/09 00:09:53;;;;;;;71.90;41.67;;;;;;;-139.48;100.00;61774.03;4957060;29;20093;-67
2021/10/09 00:12:37;;;;;;;54.65;33.33;;;;;;;-139.48;100.00;61774.03;4956712;29;20118;-67
2021/10/09 00:15:22;;;;;;;46.60;26.63;;;;;;;-139.48;100.00;61774.03;4956930;29;20050;-67
2021/10/09 00:18:06;;;;;;;40.95;25.08;;;;;;;-139.48;100.00;61774.03;4942115;29;20130;-67
2021/10/09 00:20:50;;;;;;;40.78;25.48;;;;;;;-139.48;100.00;61774.03;4929092;29;20077;-67
2021/10/09 00:23:34;;;;;;;46.88;24.77;;;;;;;-139.48;100.00;61774.03;4956543;29;20133;-67
2021/10/09 00:26:18;;;;;;;49.75;28.92;;;;;;;-139.48;100.00;61774.03;4956777;29;20051;-67
2021/10/09 00:29:02;;;;;;;43.80;24.83;;;;;;;-139.48;100.00;61774.03;4942039;29;20049;-67
2021/10/09 00:31:46;;;;;;;44.25;26.73;;;;;;;-139.48;100.00;61774.03;4942028;29;20054;-67
2021/10/09 00:34:30;;;;;;;56.72;30.35;;;;;;;-139.48;100.00;61774.03;4942035;29;20093;-67
2021/10/09 00:37:14;;;;;;;46.72;26.25;;;;;;;-139.48;100.00;61774.03;4941764;29;20058;-67
2021/10/09 00:39:58;;;;;;;39.65;23.23;;;;;;;-139.48;100.00;61774.03;4956491;29;20058;-67
2021/10/09 00:42:42;;;;;;;41.70;24.52;;;;;;;-139.48;100.00;61774.03;4941853;29;20539;-67
2021/10/09 00:45:26;;;;;;;42.08;24.25;;;;;;;-139.48;100.00;61774.03;4928420;29;20094;-67
2021/10/09 00:48:10;;;;;;;41.17;23.83;;;;;;;-139.48;100.00;61774.03;4941609;29;20081;-67
2021/10/09 00:50:54;;;;;;;39.55;22.15;;;;;;;-139.48;100.00;61774.03;4956250;29;20058;-67
2021/10/09 00:53:40;;;;;;;45.53;25.98;;;;;;;-139.48;100.00;61774.03;4941453;29;20070;-67
2021/10/09 00:56:24;;;;;;;43.08;24.73;;;;;;;-139.48;100.00;61774.03;4956105;29;20113;-67
2021/10/09 00:59:09;;;;;;;52.85;27.20;;;;;;;-139.48;100.00;61774.03;4941546;29;20134;-67
2021/10/09 01:02:02;;;;;;;39.80;22.10;;;;;;;-139.48;100.00;61774.03;4941304;29;20058;-67
2021/10/09 01:04:47;;;;;;;38.85;23.08;;;;;;;-139.48;100.00;61774.03;4956046;29;20058;-67
2021/10/09 01:07:31;;;;;;;43.35;26.30;;;;;;;-139.48;100.00;61774.03;4940699;29;20054;-67
2021/10/09 01:10:16;;;;;;;49.88;26.83;;;;;;;-139.48;100.00;61774.03;4941419;29;20050;-67
2021/10/09 01:13:03;;;;;;;54.92;28.60;;;;;;;-139.48;100.00;61774.03;4941083;29;20221;-67
2021/10/09 01:15:47;;;;;;;43.33;23.88;;;;;;;-139.48;100.00;61774.03;4941272;29;20134;-67
2021/10/09 01:18:31;;;;;;;47.28;23.38;;;;;;;-139.48;100.00;61774.03;4941065;29;20550;-67
2021/10/09 01:21:15;;;;;;;40.28;23.15;;;;;;;-139.48;100.00;61774.03;4941268;29;20134;-67
2021/10/09 01:23:59;;;;;;;37.47;22.55;;;;;;;-139.48;100.00;61774.03;4941193;29;20050;-67
2021/10/09 01:26:43;;;;;;;38.50;23.15;;;;;;;-139.48;100.00;61774.03;4955749;29;20408;-67
2021/10/09 01:29:27;;;;;;;45.65;23.77;;;;;;;-139.48;100.00;61774.03;4955424;29;20050;-67
2021/10/09 01:32:11;;;;;;;44.25;23.45;;;;;;;-139.48;100.00;61774.03;4955592;29;20408;-67
2021/10/09 01:34:54;;;;;;;44.10;25.58;;;;;;;-139.48;100.00;61774.03;4940989;29;20061;-67
2021/10/09 01:37:40;;;;;;;43.80;24.02;;;;;;;-139.48;100.00;61774.03;4941037;29;20050;-67
2021/10/09 01:40:24;;;;;;;41.17;22.75;;;;;;;-139.48;100.00;61774.03;4940727;29;20496;-67
2021/10/09 01:43:13;;;;;;;39.00;21.10;;;;;;;-139.48;100.00;61774.03;4940915;29;20054;-67
2021/10/09 01:45:57;;;;;;;40.58;23.10;;;;;;;-139.48;100.00;61774.03;4940640;29;20094;-67
2021/10/09 01:48:41;;;;;;;35.75;22.15;;;;;;;-139.48;100.00;61774.03;4955409;29;20058;-67
2021/10/09 01:51:26;;;;;;;39.58;21.95;;;;;;;-139.48;100.00;61774.03;4955350;29;20082;-67
2021/10/09 01:54:10;;;;;;;36.28;21.17;;;;;;;-139.48;100.00;61774.03;4941074;29;20054;-67
2021/10/09 01:56:54;;;;;;;36.80;22.10;;;;;;;-139.48;100.00;61774.03;4955100;29;20599;-67
2021/10/09 01:59:38;;;;;;;42.47;22.48;;;;;;;-139.48;100.00;61774.03;4955602;29;20527;-67
2021/10/09 02:02:22;;;;;;;37.70;22.50;;;;;;;-139.48;100.00;61774.03;4940571;29;20050;-67
2021/10/09 02:05:06;;;;;;;42.85;20.92;;;;;;;-139.48;100.00;61774.03;4955042;29;20146;-67
2021/10/09 02:07:50;;;;;;;36.65;21.98;;;;;;;-139.48;100.00;61774.03;4940456;29;20110;-67
2021/10/09 02:10:43;;;;;;;42.92;22.55;;;;;;;-139.48;100.00;61774.03;4955463;29;20578;-67
2021/10/09 02:13:39;;;;;;;47.72;24.38;;;;;;;-139.48;100.00;61774.03;4941840;29;20408;-67
2021/10/09 02:25:46;;;;;;;36.65;21.42;;;;;;;-139.48;100.00;61774.03;4933721;29;20050;-67
2021/10/09 02:28:30;;;;;;;39.40;21.33;;;;;;;-139.48;100.00;61774.03;4944226;29;20043;-67
2021/10/09 02:31:14;;;;;;;45.97;22.17;;;;;;;-139.48;100.00;61774.03;4944263;29;20049;-67
2021/10/09 02:33:58;;;;;;;33.75;20.77;;;;;;;-139.48;100.00;61774.03;4944468;29;20050;-67
2021/10/09 02:36:42;;;;;;;41.45;22.27;;;;;;;-139.48;100.00;61774.03;4944162;29;20054;-67
2021/10/09 02:39:26;;;;;;;36.40;21.85;;;;;;;-139.48;100.00;61774.03;4944184;29;20109;-67
2021/10/09 02:42:10;;;;;;;41.13;22.80;;;;;;;-139.48;100.00;61774.03;4958340;29;20102;-67
2021/10/09 02:44:53;;;;;;;36.83;21.63;;;;;;;-139.48;100.00;61774.03;4944346;29;20073;-67
2021/10/09 02:47:37;;;;;;;40.15;22.83;;;;;;;-139.48;100.00;61774.03;4943871;29;20578;-67
2021/10/09 02:50:21;;;;;;;48.97;23.95;;;;;;;-139.48;100.00;61774.03;4943774;29;20150;-67
2021/10/09 02:53:05;;;;;;;40.42;22.77;;;;;;;-139.48;100.00;61774.03;4958166;29;20523;-67
2021/10/09 02:55:49;;;;;;;37.92;22.30;;;;;;;-139.48;100.00;61774.03;4943643;29;20046;-67
2021/10/09 02:58:33;;;;;;;42.47;23.27;;;;;;;-139.48;100.00;61774.03;4943566;29;20054;-67
2021/10/09 03:01:17;;;;;;;38.80;23.48;;;;;;;-139.48;100.00;61774.03;4957978;29;20105;-67
2021/10/09 03:04:01;;;;;;;44.75;23.33;;;;;;;-139.48;100.00;61774.03;4943754;29;20054;-67
2021/10/09 03:06:45;;;;;;;44.50;25.35;;;;;;;-139.48;100.00;61774.03;4958202;29;20050;-66
2021/10/09 03:09:28;;;;;;;42.88;25.15;;;;;;;-139.48;100.00;61774.03;4957896;29;20102;-67
2021/10/09 03:12:12;;;;;;;45.33;24.90;;;;;;;-139.48;100.00;61774.03;4943294;29;20134;-67
2021/10/09 03:14:56;;;;;;;37.28;22.80;;;;;;;-139.48;100.00;61774.03;4943192;29;20054;-67
2021/10/09 03:17:40;;;;;;;41.50;23.73;;;;;;;-139.48;100.00;61774.03;4958072;29;20050;-67
2021/10/09 03:20:24;;;;;;;39.97;24.25;;;;;;;-139.48;100.00;61774.03;4958034;29;20050;-67
2021/10/09 03:23:08;;;;;;;39.78;23.20;;;;;;;-139.48;100.00;61774.03;4929659;29;20182;-67
2021/10/09 03:25:52;;;;;;;47.17;24.95;;;;;;;-139.48;100.00;61774.03;4957650;29;20130;-67
2021/10/09 03:28:36;;;;;;;41.67;23.58;;;;;;;-139.48;100.00;61774.03;4943344;29;20075;-67
2021/10/09 03:31:20;;;;;;;42.10;24.80;;;;;;;-139.48;100.00;61774.03;4942226;29;20127;-67
2021/10/09 03:34:04;;;;;;;38.78;22.80;;;;;;;-139.48;100.00;61774.03;4957773;29;20077;-67
2021/10/09 03:36:48;;;;;;;42.78;23.55;;;;;;;-139.48;100.00;61774.03;4942843;29;20524;-67
2021/10/09 03:39:33;;;;;;;39.53;24.05;;;;;;;-139.48;100.00;61774.03;4957908;29;20085;-67
2021/10/09 03:42:44;;;;;;;39.95;23.30;;;;;;;-139.48;100.00;61774.03;4942920;29;20045;-67
2021/10/09 03:45:29;;;;;;;41.15;24.77;;;;;;;-139.48;100.00;61774.03;4946267;29;20046;-67
2021/10/09 03:54:09;;;;;;;43.47;25.02;;;;;;;-139.48;100.00;61774.03;4957391;29;20101;-67
2021/10/09 03:56:53;;;;;;;40.90;24.60;;;;;;;-139.48;100.00;61774.03;4957274;29;20054;-66
2021/10/09 03:59:37;;;;;;;46.08;24.98;;;;;;;-139.48;100.00;61774.03;4957125;29;20118;-67
2021/10/09 04:02:21;;;;;;;43.45;23.60;;;;;;;-139.48;100.00;61774.03;4958734;29;20050;-67
2021/10/09 04:05:06;;;;;;;50.85;25.67;;;;;;;-139.48;100.00;61774.03;4942654;29;20157;-67
2021/10/09 04:07:50;;;;;;;49.40;26.77;;;;;;;-139.48;100.00;61774.03;4929274;29;20050;-67
2021/10/09 04:10:35;;;;;;;45.03;25.75;;;;;;;-139.48;100.00;61774.03;4957107;29;20049;-67
2021/10/09 04:13:19;;;;;;;43.45;24.55;;;;;;;-139.48;100.00;61774.03;4942556;29;20066;-67
2021/10/09 04:16:04;;;;;;;43.70;25.50;;;;;;;-139.48;100.00;61774.03;4942403;29;20119;-67
2021/10/09 04:18:48;;;;;;;47.58;27.20;;;;;;;-139.48;100.00;61774.03;4928979;29;20058;-67
2021/10/09 04:21:32;;;;;;;45.78;26.00;;;;;;;-139.48;100.00;61774.03;4942238;29;20063;-67
2021/10/09 04:24:18;;;;;;;51.60;28.80;;;;;;;-139.48;100.00;61774.03;4956617;29;20053;-67
2021/10/09 04:27:02;;;;;;;51.72;27.80;;;;;;;-139.48;100.00;61774.03;4941941;29;20050;-67
2021/10/09 04:29:46;;;;;;;50.17;27.08;;;;;;;-139.48;100.00;61774.03;4956745;29;20548;-67
2021/10/09 04:32:30;;;;;;;45.78;26.25;;;;;;;-139.48;100.00;61774.03;4941794;29;20135;-67
2021/10/09 04:35:14;;;;;;;48.35;26.73;;;;;;;-139.48;100.00;61774.03;4942300;29;20046;-67
2021/10/09 04:37:58;;;;;;;54.22;28.83;;;;;;;-139.48;100.00;61774.03;4956249;29;20106;-67
2021/10/09 04:40:42;;;;;;;46.83;28.00;;;;;;;-139.48;100.00;61774.03;4942006;29;20050;-67
2021/10/09 04:43:26;;;;;;;50.10;26.80;;;;;;;-139.48;100.00;61774.03;4941173;29;20404;-67
2021/10/09 04:46:10;;;;;;;45.05;27.52;;;;;;;-139.48;100.00;61774.03;4941940;29;20078;-67
2021/10/09 04:48:53;;;;;;;52.53;27.88;;;;;;;-139.48;100.00;61774.03;4941592;29;20053;-67
2021/10/09 04:51:37;;;;;;;54.58;26.67;;;;;;;-139.48;100.00;61774.03;4941623;29;20102;-67
2021/10/09 04:54:21;;;;;;;48.33;25.88;;;;;;;-139.48;100.00;61774.03;4956282;29;20630;-67
2021/10/09 04:57:05;;;;;;;46.30;25.75;;;;;;;-139.48;100.00;61774.03;4941679;29;20094;-67
2021/10/09 04:59:50;;;;;;;50.92;28.52;;;;;;;-139.48;100.00;61774.03;4941942;29;20130;-67
2021/10/09 05:02:34;;;;;;;46.03;26.75;;;;;;;-139.48;100.00;61774.03;4955720;29;20126;-67
2021/10/09 05:05:21;;;;;;;48.20;27.63;;;;;;;-139.48;100.00;61774.03;4941310;29;20472;-67
2021/10/09 05:08:05;;;;;;;49.70;27.55;;;;;;;-139.48;100.00;61774.03;4941221;29;20448;-67
2021/10/09 05:10:49;;;;;;;45.45;26.08;;;;;;;-139.48;100.00;61774.03;4941406;29;20101;-67
2021/10/09 05:13:33;;;;;;;48.45;27.20;;;;;;;-139.48;100.00;61774.03;4941412;29;20126;-67
2021/10/09 05:16:17;;;;;;;45.60;26.77;;;;;;;-139.48;100.00;61774.03;4941283;29;20050;-67
2021/10/09 05:19:02;;;;;;;45.83;26.73;;;;;;;-139.48;100.00;61774.03;4956100;29;20468;-67
2021/10/09 05:21:46;;;;;;;43.17;25.73;;;;;;;-139.48;100.00;61774.03;4955467;29;20096;-67
2021/10/09 05:24:30;;;;;;;48.20;25.48;;;;;;;-139.48;100.00;61774.03;4955789;29;20552;-67
2021/10/09 05:27:14;;;;;;;50.72;26.40;;;;;;;-139.48;100.00;61774.03;4955505;29;20086;-67
2021/10/09 05:30:06;;;;;;;47.05;25.02;;;;;;;-139.48;100.00;61774.03;4940976;29;20138;-67
2021/10/09 05:36:09;;;;;;;46.03;24.02;;;;;;;-139.48;100.00;61774.03;4934194;29;20224;-66
2021/10/09 05:38:53;;;;;;;44.72;25.40;;;;;;;-139.48;100.00;61774.03;4955476;29;20142;-67
2021/10/09 05:41:37;;;;;;;42.63;26.00;;;;;;;-139.48;100.00;61774.03;4955753;29;20098;-67
2021/10/09 05:44:21;;;;;;;44.95;26.13;;;;;;;-139.48;100.00;61774.03;4955547;29;20050;-67
2021/10/09 05:47:05;;;;;;;52.88;25.35;;;;;;;-139.48;100.00;61774.03;4955237;29;20054;-67
2021/10/09 05:49:53;;;;;;;47.97;26.05;;;;;;;-139.48;100.00;61774.03;4955200;29;20552;-67
2021/10/09 05:55:52;;;;;;;46.55;25.35;;;;;;;-139.48;100.00;61774.03;4955176;29;20126;-67
2021/10/09 06:38:11;;;;;;;43.95;26.33;;;;;;;-139.48;100.00;61774.03;4943094;29;20151;-67
2021/10/09 06:44:09;;;;;;;46.70;26.75;;;;;;;-139.48;100.00;61774.03;4954910;29;20114;-67
2021/10/09 07:01:58;;;;;;;44.47;24.83;;;;;;;-139.48;100.00;61774.03;4954679;29;20515;-67
2021/10/09 07:04:41;;;;;;;45.33;24.10;;;;;;;-139.48;100.00;61774.03;4940002;28;20212;-67
2021/10/09 07:07:25;;;;;;;40.33;23.15;;;;;;;-139.48;100.00;61774.03;4943041;29;20050;-67
2021/10/09 07:10:10;;;;;;;38.00;23.27;;;;;;;-139.48;100.00;61774.03;4957589;29;20055;-67
2021/10/09 07:12:54;;;;;;;36.10;21.98;;;;;;;-139.48;100.00;61774.03;4957054;29;20531;-67
2021/10/09 07:15:38;;;;;;;44.50;23.60;;;;;;;-139.48;100.00;61774.03;4957353;29;20488;-67
2021/10/09 07:18:23;;;;;;;40.35;23.08;;;;;;;-139.48;100.00;61774.03;4956124;29;20146;-67
2021/10/09 07:21:07;;;;;;;37.15;23.20;;;;;;;-139.48;100.00;61774.03;4957049;29;20105;-67
2021/10/09 07:23:50;;;;;;;40.88;22.58;;;;;;;-139.48;100.00;61774.03;4957109;29;20058;-67
2021/10/09 07:26:35;;;;;;;38.10;24.90;;;;;;;-139.48;100.00;61774.03;4957554;29;20050;-67
2021/10/09 07:29:18;;;;;;;40.20;23.45;;;;;;;-139.48;100.00;61774.03;4928974;29;20061;-67
2021/10/09 07:32:03;;;;;;;38.97;22.92;;;;;;;-139.48;100.00;61774.03;4957053;29;20046;-67
2021/10/09 07:34:47;;;;;;;34.75;21.27;;;;;;;-139.48;100.00;61774.03;4942423;29;20507;-67
2021/10/09 07:37:31;;;;;;;37.92;21.80;;;;;;;-139.48;100.00;61774.03;4942487;29;20583;-67
2021/10/09 07:40:15;;;;;;;32.40;19.77;;;;;;;-139.48;100.00;61774.03;4942425;29;20191;-69
2021/10/09 07:42:59;;;;;;;34.50;20.50;;;;;;;-139.48;100.00;61774.03;4956649;29;20467;-66
2021/10/09 07:45:43;;;;;;;38.88;21.80;;;;;;;-139.48;100.00;61774.03;4942398;29;20042;-67
2021/10/09 07:48:27;;;;;;;32.40;19.75;;;;;;;-139.48;100.00;61774.03;4942339;29;20364;-67
2021/10/09 07:51:11;;;;;;;35.88;23.20;;;;;;;-139.48;100.00;61774.03;4956799;29;20504;-66
2021/10/09 07:53:54;;;;;;;32.67;19.58;;;;;;;-139.48;100.00;61774.03;4941990;29;20195;-66
2021/10/09 07:56:38;;;;;;;33.53;19.45;;;;;;;-139.48;100.00;61774.03;4956357;29;20050;-66
2021/10/09 07:59:23;;;;;;;33.00;18.42;;;;;;;-139.48;100.00;61774.03;4942155;29;20058;-67
2021/10/09 08:02:07;;;;;;;32.40;19.00;;;;;;;-139.48;100.00;61774.03;4928227;29;20122;-67
2021/10/09 08:04:51;;;;;;;29.95;18.52;;;;;;;-139.48;100.00;61774.03;4928179;29;20106;-67
2021/10/09 08:07:35;;;;;;;32.47;18.15;;;;;;;-139.48;100.00;61774.03;4956448;29;20106;-66
2021/10/09 08:10:19;;;;;;;32.17;17.23;;;;;;;-139.48;100.00;61774.03;4941890;29;20523;-66
2021/10/09 08:13:03;;;;;;;30.25;17.08;;;;;;;-139.48;100.00;61774.03;4956123;29;20523;-67
2021/10/09 08:15:48;;;;;;;;;;;;;;;-139.48;100.00;61774.03;4956716;29;20081;-67
2021/10/09 08:18:32;;;;;;;27.80;16.85;;;;;;;-139.48;100.00;61774.03;4941321;29;19979;-67
2021/10/09 08:21:17;;;;;;;28.52;16.92;;;;;;;-139.48;100.00;61774.03;4956127;29;20054;-67
2021/10/09 08:24:12;;;;;;;24.23;16.35;;;;;;;-139.48;100.00;61774.03;4941793;29;20049;-66
2021/10/09 08:38:51;;;;;;;27.00;15.27;;;;;;;-139.48;100.00;61774.03;4941563;29;20050;-66
2021/10/09 08:41:35;;;;;;;28.10;16.20;;;;;;;-139.48;100.00;61774.03;4955496;29;20049;-66
2021/10/09 08:44:20;;;;;;;22.70;15.52;;;;;;;-139.48;100.00;61774.03;4955741;29;20106;-67
2021/10/09 08:47:04;;;;;;;22.15;15.20;;;;;;;-139.48;100.00;61774.03;4955687;29;20089;-66
2021/10/09 08:49:48;;;;;;;32.85;16.13;;;;;;;-139.48;100.00;61774.03;4940948;29;20069;-67
2021/10/09 08:52:32;;;;;;;25.42;15.60;;;;;;;-139.48;100.00;61774.03;4941114;29;20121;-66
2021/10/09 08:55:24;;;;;;;25.67;15.23;;;;;;;-139.48;100.00;61774.03;4927690;29;20113;-67
2021/10/09 08:58:11;;;;;;;27.30;14.88;;;;;;;-139.48;100.00;61774.03;4955106;29;20042;-67
2021/10/09 09:25:33;;;;;;;22.23;13.32;;;;;;;-139.48;100.00;61774.03;4942904;29;20186;-68
2021/10/09 09:31:30;;;;;;;21.45;13.80;;;;;;;-139.48;100.00;61774.03;4954926;29;20106;-68
2021/10/09 09:37:28;;;;;;;20.45;12.68;;;;;;;-139.48;100.00;61774.03;4940252;29;20424;-68
2021/10/09 09:40:15;;;;;;;18.67;13.55;;;;;;;-139.48;100.00;61774.03;4940367;29;20050;-68
2021/10/09 09:42:58;;;;;;;21.65;15.05;;;;;;;-139.48;100.00;61774.03;4953255;29;20054;-67
2021/10/09 09:45:43;;;;;;;20.67;13.23;;;;;;;-139.48;100.00;61774.03;4954925;29;20050;-68
2021/10/09 09:48:26;;;;;;;20.23;14.70;;;;;;;-139.48;100.00;61774.03;4954774;29;20515;-68
2021/10/09 09:51:14;;;;;;;23.88;15.23;;;;;;;-139.48;100.00;61774.03;4940381;29;20063;-67
2021/10/09 09:53:59;;;;;;;21.98;13.75;;;;;;;-139.48;100.00;61774.03;4940486;29;20134;-68
2021/10/09 09:56:43;;;;;;;24.77;13.93;;;;;;;-139.48;100.00;61774.03;4939986;29;20098;-67
2021/10/09 09:59:32;;;;;;;22.35;14.50;;;;;;;-139.48;100.00;61774.03;4940277;29;20138;-66
2021/10/09 10:02:17;;;;;;;18.58;13.40;;;;;;;-139.48;100.00;61774.03;4939886;29;20393;-65
2021/10/09 10:05:02;;;;;;;20.52;13.52;;;;;;;-139.48;100.00;61774.03;4940193;29;20169;-65
2021/10/09 10:07:46;;;;;;;23.50;13.40;;;;;;;-139.48;100.00;61774.03;4939943;29;20106;-65
2021/10/09 10:10:31;;;;;;;20.63;12.70;;;;;;;-139.48;100.00;61774.03;4954619;29;20079;-65
2021/10/09 10:13:15;;;;;;;21.23;13.63;;;;;;;-139.48;100.00;61774.03;4939646;29;20106;-65
2021/10/09 10:16:05;;;;;;;16.27;13.75;;;;;;;-139.48;100.00;61774.03;4939677;29;20073;-67
2021/10/09 10:18:50;;;;;;;19.52;14.05;;;;;;;-139.48;100.00;61774.03;4939686;29;20046;-65
2021/10/09 10:21:37;;;;;;;21.63;13.35;;;;;;;-139.48;100.00;61774.03;4939546;29;20094;-65
2021/10/09 10:24:43;;;;;;;21.33;12.77;;;;;;;-139.48;100.00;61774.03;4954540;29;20050;-65
2021/10/09 10:27:31;;;;;;;18.75;12.85;;;;;;;-139.48;100.00;61774.03;4954478;29;20480;-65
2021/10/09 10:30:15;;;;;;;18.73;12.63;;;;;;;-139.48;100.00;61774.03;4954414;29;20412;-65
2021/10/09 10:32:59;;;;;;;19.27;13.40;;;;;;;-139.48;100.00;61774.03;4939595;29;20062;-65
2021/10/09 10:35:43;;;;;;;17.02;12.20;;;;;;;-139.48;100.00;61774.03;4954328;29;20050;-65
2021/10/09 10:38:33;;;;;;;19.25;12.57;;;;;;;-139.48;100.00;61774.03;4954219;29;20078;-66
2021/10/09 10:41:38;;;;;;;17.75;12.77;;;;;;;-139.48;100.00;61774.03;4957277;28;20094;-65
2021/10/09 10:45:10;;;;;;;20.73;12.55;;;;;;;-139.48;100.00;61774.03;4943438;29;20054;-65
2021/10/09 10:51:00;;;;;;;17.52;11.80;;;;;;;-139.48;100.00;61774.03;4957702;29;20097;-65
2021/10/09 10:53:53;;;;;;;20.90;13.00;;;;;;;-139.48;100.00;61774.03;4957734;29;20050;-65
2021/10/09 10:56:55;;;;;;;21.38;11.50;;;;;;;-139.48;100.00;61774.03;4957522;29;20139;-65
2021/10/09 11:02:43;;;;;;;14.30;11.63;;;;;;;-139.48;100.00;61774.03;4957658;29;20295;-65
2021/10/09 11:05:28;;;;;;;19.48;12.43;;;;;;;-139.48;100.00;61774.03;4942857;29;20042;-66
2021/10/09 11:08:13;;;;;;;18.13;12.27;;;;;;;-139.48;100.00;61774.03;4943003;29;20548;-65
2021/10/09 11:10:57;;;;;;;16.33;12.48;;;;;;;-139.48;100.00;61774.03;4942889;29;20101;-65
2021/10/09 11:13:42;;;;;;;19.02;12.40;;;;;;;-139.48;100.00;61774.03;4943168;29;20049;-66
2021/10/09 11:16:30;;;;;;;16.85;12.05;;;;;;;-139.48;100.00;61774.03;4942670;29;20058;-65
2021/10/09 11:19:14;;;;;;;16.52;13.00;;;;;;;-139.48;100.00;61774.03;4942582;29;20078;-66
2021/10/09 11:21:58;;;;;;;18.33;11.85;;;;;;;-139.48;100.00;61774.03;4957096;29;20185;-66
2021/10/09 11:24:50;;;;;;;18.20;13.38;;;;;;;-139.48;100.00;61774.03;4942755;29;20054;-65
2021/10/09 11:27:38;;;;;;;19.52;12.85;;;;;;;-139.48;100.00;61774.03;4942531;29;20046;-65
2021/10/09 11:30:23;;;;;;;20.17;13.23;;;;;;;-139.48;100.00;61774.03;4957049;29;20069;-66
2021/10/09 11:33:06;;;;;;;16.35;12.95;;;;;;;-139.48;100.00;61774.03;4956852;29;20050;-68
2021/10/09 11:35:50;;;;;;;22.13;13.52;;;;;;;-139.48;100.00;61774.03;4942526;29;20114;-66
2021/10/09 11:38:34;;;;;;;16.75;12.65;;;;;;;-139.48;100.00;61774.03;4942204;29;20050;-66
2021/10/09 11:41:22;;;;;;;20.15;11.75;;;;;;;-139.48;100.00;61774.03;4956686;29;20054;-66
2021/10/09 11:44:24;;;;;;;18.33;12.25;;;;;;;-139.48;100.00;61774.03;4942935;29;20054;-66
2021/10/09 11:56:13;;;;;;;21.30;12.63;;;;;;;-139.48;100.00;61774.03;4956519;29;20070;-68
2021/10/09 11:58:59;;;;;;;19.58;11.85;;;;;;;-139.48;100.00;61774.03;4928568;29;20238;-68
2021/10/09 12:01:46;;;;;;;17.17;11.48;;;;;;;-139.48;100.00;61774.03;4942121;29;20058;-68
2021/10/09 12:04:31;;;;;;;19.02;11.18;;;;;;;-139.48;100.00;61774.03;4956325;29;20054;-68
2021/10/09 12:07:21;;;;;;;15.45;11.88;;;;;;;-139.48;100.00;61774.03;5010654;23;20073;-69
2021/10/09 12:10:14;;;;;;;14.68;11.20;;;;;;;-139.48;100.00;61774.03;4994306;28;20479;-70
2021/10/09 12:13:05;;;;;;;13.55;10.95;;;;;;;-139.48;100.00;61774.03;4993786;28;20053;-71
2021/10/09 12:15:49;;;;;;;18.23;11.65;;;;;;;-139.48;100.00;61774.03;4994950;28;20054;-71
2021/10/09 12:18:56;;;;;;;15.88;12.18;;;;;;;-139.48;100.00;61774.03;4994969;28;20463;-70
2021/10/09 12:21:50;;;;;;;13.05;11.15;;;;;;;-139.48;100.00;61774.03;4994784;28;20093;-70
2021/10/09 12:24:44;;;;;;;20.52;11.13;;;;;;;-139.48;100.00;61774.03;4994901;28;20144;-70
2021/10/09 12:27:36;;;;;;;14.35;10.98;;;;;;;-139.48;100.00;61774.03;4993498;28;20510;-70
2021/10/09 12:30:20;;;;;;;18.02;11.10;;;;;;;-139.48;100.00;61774.03;4994453;28;20049;-69
2021/10/09 12:33:04;;;;;;;13.30;10.70;;;;;;;-139.48;100.00;61774.03;4979812;28;20084;-70
2021/10/09 12:35:48;;;;;;;16.15;11.32;;;;;;;-139.48;100.00;61774.03;4994217;28;20065;-70
2021/10/09 12:38:38;;;;;;;16.92;10.93;;;;;;;-139.48;100.00;61774.03;4994293;28;20465;-70
2021/10/09 12:41:22;;;;;;;15.95;10.75;;;;;;;-139.48;100.00;61774.03;4993299;28;20088;-70
2021/10/09 12:44:06;;;;;;;15.13;11.77;;;;;;;-139.48;100.00;61774.03;4993703;28;20348;-69
2021/10/09 12:46:50;;;;;;;18.02;12.10;;;;;;;-139.48;100.00;61774.03;4994288;28;20108;-69
2021/10/09 12:49:34;;;;;;;17.33;11.68;;;;;;;-139.48;100.00;61774.03;4992990;28;20535;-70
2021/10/09 12:52:18;;;;;;;16.63;11.38;;;;;;;-139.48;100.00;61774.03;4993232;28;20104;-70
2021/10/09 12:55:03;;;;;;;16.85;12.65;;;;;;;-139.48;100.00;61774.03;4979247;28;20049;-70
2021/10/09 12:57:52;;;;;;;15.55;11.23;;;;;;;-139.48;100.00;61774.03;4994078;28;20104;-70
2021/10/09 13:00:37;;;;;;;18.08;12.23;;;;;;;-139.48;100.00;61774.03;4979481;28;20052;-70
2021/10/09 13:03:21;;;;;;;15.18;10.85;;;;;;;-139.48;100.00;61774.03;4978621;28;20049;-70
2021/10/09 13:06:05;;;;;;;17.67;10.82;;;;;;;-139.48;100.00;61774.03;4993968;28;20093;-70
2021/10/09 13:08:49;;;;;;;15.30;10.35;;;;;;;-139.48;100.00;61774.03;4979165;28;20530;-70
2021/10/09 13:11:44;;;;;;;17.70;10.65;;;;;;;-139.48;100.00;61774.03;4979278;28;20049;-70
2021/10/09 13:14:28;;;;;;;18.80;11.30;;;;;;;-139.48;100.00;61774.03;4980612;28;20048;-70
2021/10/09 13:17:11;;;;;;;15.55;9.93;;;;;;;-139.48;100.00;61774.03;4978956;28;20086;-70
2021/10/09 13:19:55;;;;;;;15.48;9.95;;;;;;;-139.48;100.00;61774.03;4993755;28;20104;-70
2021/10/09 13:22:40;;;;;;;12.48;9.82;;;;;;;-139.48;100.00;61774.03;4992730;28;20065;-68
2021/10/09 13:25:24;;;;;;;15.27;10.82;;;;;;;-139.48;100.00;61774.03;4992710;28;20096;-71
2021/10/09 13:28:08;;;;;;;16.63;9.63;;;;;;;-139.48;100.00;61774.03;4992766;28;20053;-70
2021/10/09 13:30:52;;;;;;;14.70;9.90;;;;;;;-139.48;100.00;61774.03;4992730;28;20121;-70
2021/10/09 13:33:35;;;;;;;18.65;10.68;;;;;;;-139.48;100.00;61774.03;4992678;28;20579;-70
2021/10/09 13:36:21;;;;;;;14.77;10.30;;;;;;;-139.48;100.00;61774.03;4992182;28;20056;-70
2021/10/09 13:39:05;;;;;;;13.82;9.88;;;;;;;-139.48;100.00;61774.03;4993933;28;20266;-69
2021/10/09 13:41:49;;;;;;;14.00;9.18;;;;;;;-139.48;100.00;61774.03;4992611;28;20053;-70
2021/10/09 13:44:33;;;;;;;14.05;9.98;;;;;;;-139.48;100.00;61774.03;4978555;28;20054;-70
2021/10/09 13:47:17;;;;;;;14.93;9.98;;;;;;;-139.48;100.00;61774.03;4992217;28;20181;-70
2021/10/09 13:50:02;;;;;;;15.40;9.93;;;;;;;-139.48;100.00;61774.03;4992406;28;20511;-70
2021/10/09 13:52:46;;;;;;;13.07;9.68;;;;;;;-139.48;100.00;61774.03;4993171;28;20431;-70
2021/10/09 13:55:30;;;;;;;15.02;9.63;;;;;;;-139.48;100.00;61774.03;4992481;28;20045;-70
2021/10/09 13:58:15;;;;;;;13.70;9.65;;;;;;;-139.48;100.00;61774.03;4992206;28;20053;-70
2021/10/09 14:00:59;;;;;;;11.55;9.43;;;;;;;-139.48;100.00;61774.03;4978781;28;20053;-70
2021/10/09 14:03:45;;;;;;;12.38;9.60;;;;;;;-139.48;100.00;61774.03;4992020;28;20518;-68
2021/10/09 14:06:29;;;;;;;12.05;9.15;;;;;;;-139.48;100.00;61774.03;4992110;28;20177;-70
2021/10/09 14:09:13;;;;;;;13.05;9.73;;;;;;;-139.48;100.00;61774.03;4992012;28;20072;-69
2021/10/09 14:11:57;;;;;;;14.68;10.45;;;;;;;-139.48;100.00;61774.03;4993237;28;20044;-70
2021/10/09 14:14:41;;;;;;;12.52;9.05;;;;;;;-139.48;100.00;61774.03;4992546;28;20408;-70
2021/10/09 14:17:25;;;;;;;15.38;9.68;;;;;;;-139.48;100.00;61774.03;4997344;28;20471;-68
2021/10/09 14:20:09;;;;;;;15.07;9.88;;;;;;;-139.48;100.00;61774.03;4997255;28;20053;-70
2021/10/09 14:22:53;;;;;;;18.60;10.15;;;;;;;-139.48;100.00;61774.03;4996186;28;20045;-70
2021/10/09 14:25:37;;;;;;;16.30;10.48;;;;;;;-139.48;100.00;61774.03;4996153;28;20122;-71
2021/10/09 14:28:21;;;;;;;18.27;10.48;;;;;;;-139.48;100.00;61774.03;4995885;28;20065;-71
2021/10/09 14:31:05;;;;;;;14.80;9.00;;;;;;;-139.48;100.00;61774.03;4982178;28;20249;-71
2021/10/09 14:33:49;;;;;;;15.10;10.15;;;;;;;-139.48;100.00;61774.03;4996124;28;20096;-71